createdAt,value
2017-06-19T12:31:46.080Z,0.00
2017-06-19T12:31:46.948Z,0.00
2017-06-19T12:31:47.783Z,0.00
2017-06-19T12:31:48.653Z,0.00
2017-06-19T12:31:49.582Z,0.00
2017-06-19T12:31:50.406Z,0.00
2017-06-19T12:31:51.532Z,0.00
2017-06-19T12:31:52.366Z,0.00
2017-06-19T12:31:53.263Z,0.00
2017-06-19T12:31:54.094Z,0.00
2017-06-19T12:31:54.957Z,0.00
2017-06-19T12:31:55.891Z,0.00
2017-06-19T12:31:56.729Z,0.00
2017-06-19T12:31:57.599Z,0.00
2017-06-19T12:31:58.456Z,0.00
2017-06-19T12:31:59.342Z,0.00
2017-06-19T12:32:00.183Z,0.00
2017-06-19T12:32:01.107Z,0.00
2017-06-19T12:32:01.978Z,0.00
2017-06-19T12:32:02.900Z,0.00
2017-06-19T12:32:03.813Z,0.00
2017-06-19T12:32:04.682Z,0.00
2017-06-19T12:32:05.524Z,0.00
2017-06-19T12:32:06.354Z,0.00
2017-06-19T12:32:07.262Z,0.00
2017-06-19T12:32:08.086Z,0.00
2017-06-19T12:32:08.912Z,0.00
2017-06-19T12:32:09.895Z,0.00
2017-06-19T12:32:10.746Z,0.00
2017-06-19T12:32:11.666Z,0.00
2017-06-19T12:32:12.559Z,0.00
2017-06-19T12:32:13.392Z,0.00
2017-06-19T12:32:14.264Z,0.00
2017-06-19T12:32:16.163Z,0.00
2017-06-19T12:32:17.121Z,0.00
2017-06-19T12:32:18.071Z,0.00
2017-06-19T12:32:18.907Z,0.00
2017-06-19T12:32:19.783Z,0.00
2017-06-19T12:32:20.625Z,0.00
2017-06-19T12:32:21.511Z,0.00
2017-06-19T12:32:22.355Z,0.00
2017-06-19T12:32:23.251Z,0.00
2017-06-19T12:32:24.184Z,0.00
2017-06-19T12:32:25.052Z,0.00
2017-06-19T12:32:25.901Z,0.00
2017-06-19T12:32:26.778Z,0.00
2017-06-19T12:32:27.620Z,0.00
2017-06-19T12:32:28.499Z,0.00
2017-06-19T12:32:29.338Z,0.00
2017-06-19T12:32:30.225Z,0.00
2017-06-19T12:32:31.171Z,0.00
2017-06-19T12:32:32.003Z,0.00
2017-06-19T12:32:32.847Z,0.00
2017-06-19T12:32:33.699Z,0.00
2017-06-19T12:32:34.588Z,0.00
2017-06-19T12:32:35.428Z,0.00
2017-06-19T12:32:36.304Z,0.00
2017-06-19T12:32:37.383Z,0.00
2017-06-19T12:32:38.486Z,0.00
2017-06-19T12:32:39.421Z,0.00
2017-06-19T12:32:40.286Z,0.00
2017-06-19T12:32:41.177Z,0.00
2017-06-19T12:32:42.015Z,0.00
2017-06-19T12:32:42.892Z,0.00
2017-06-19T12:32:43.849Z,0.00
2017-06-19T12:32:44.724Z,0.00
2017-06-19T12:32:45.557Z,0.00
2017-06-19T12:32:46.393Z,0.00
2017-06-19T12:32:47.518Z,0.00
2017-06-19T12:32:48.417Z,0.00
2017-06-19T12:32:49.265Z,0.00
2017-06-19T12:32:50.128Z,0.00
2017-06-19T12:32:50.979Z,0.00
2017-06-19T12:32:52.164Z,0.00
2017-06-19T12:32:53.008Z,0.00
2017-06-19T12:32:53.919Z,0.00
2017-06-19T12:32:54.795Z,0.00
2017-06-19T12:32:55.723Z,0.00
2017-06-19T12:33:01.573Z,0.00
2017-06-19T12:33:02.412Z,0.00
2017-06-19T12:33:03.290Z,0.00
2017-06-19T12:33:09.130Z,0.00
2017-06-19T12:33:09.980Z,0.00
2017-06-19T12:33:10.877Z,0.00
2017-06-19T12:33:11.725Z,0.00
2017-06-19T12:33:12.577Z,0.00
2017-06-19T12:33:13.444Z,0.00
2017-06-19T12:33:14.314Z,0.00
2017-06-19T12:33:15.163Z,0.00
2017-06-19T12:33:16.054Z,0.00
2017-06-19T12:33:16.906Z,0.00
2017-06-19T12:33:17.831Z,0.00
2017-06-19T12:33:18.714Z,0.00
2017-06-19T12:33:19.558Z,0.00
2017-06-19T12:33:20.445Z,0.00
2017-06-19T12:33:21.303Z,0.00
2017-06-19T12:33:22.157Z,0.00
2017-06-19T12:33:23.033Z,0.00
2017-06-19T12:33:23.877Z,0.00
2017-06-19T12:33:24.705Z,0.00
2017-06-19T12:33:25.585Z,0.00
2017-06-19T12:33:26.419Z,0.00
2017-06-19T12:33:27.300Z,0.00
2017-06-19T12:33:28.144Z,0.00
2017-06-19T12:33:28.988Z,0.00
2017-06-19T12:33:29.963Z,0.00
2017-06-19T12:33:30.873Z,0.00
2017-06-19T12:33:31.727Z,0.00
2017-06-19T12:33:32.604Z,0.00
2017-06-19T12:33:33.514Z,0.00
2017-06-19T12:33:34.342Z,0.00
2017-06-19T12:33:35.224Z,0.00
2017-06-19T12:33:36.075Z,0.00
2017-06-19T12:33:36.950Z,0.00
2017-06-19T12:33:38.233Z,0.00
2017-06-19T12:33:39.114Z,0.00
2017-06-19T12:33:39.951Z,0.00
2017-06-19T12:33:40.813Z,0.00
2017-06-19T12:33:41.723Z,0.00
2017-06-19T12:33:42.597Z,0.00
2017-06-19T12:33:43.430Z,0.00
2017-06-19T12:33:44.302Z,0.00
2017-06-19T12:33:45.191Z,0.00
2017-06-19T12:33:46.284Z,0.00
2017-06-19T12:33:47.144Z,0.00
2017-06-19T12:33:48.010Z,0.00
2017-06-19T12:33:48.922Z,0.00
2017-06-19T12:33:49.825Z,0.00
2017-06-19T12:33:50.701Z,0.00
2017-06-19T12:33:51.544Z,0.00
2017-06-19T12:33:52.406Z,0.00
2017-06-19T12:33:53.267Z,0.00
2017-06-19T12:33:54.129Z,0.00
2017-06-19T12:33:54.986Z,0.00
2017-06-19T12:33:55.884Z,0.00
2017-06-19T12:33:56.756Z,0.00
2017-06-19T12:33:57.606Z,0.00
2017-06-19T12:33:58.447Z,0.00
2017-06-19T12:33:59.335Z,0.00
2017-06-19T12:34:00.185Z,0.00
2017-06-19T12:34:01.059Z,0.00
2017-06-19T12:34:01.908Z,0.00
2017-06-19T12:34:02.809Z,0.00
2017-06-19T12:34:03.667Z,0.00
2017-06-19T12:34:04.546Z,576.71
2017-06-19T12:34:05.414Z,83.19
2017-06-19T12:34:06.266Z,63.84
2017-06-19T12:34:07.138Z,1157.95
2017-06-19T12:34:07.970Z,305.46
2017-06-19T12:34:08.796Z,770.46
2017-06-19T12:34:09.713Z,268.98
2017-06-19T12:34:10.531Z,121.13
2017-06-19T12:34:11.430Z,0.00
2017-06-19T12:34:12.287Z,0.00
2017-06-19T12:34:13.173Z,0.00
2017-06-19T12:34:13.995Z,0.00
2017-06-19T12:34:14.853Z,0.00
2017-06-19T12:34:15.795Z,0.00
2017-06-19T12:34:16.653Z,0.00
2017-06-19T12:34:17.516Z,0.00
2017-06-19T12:34:18.349Z,0.00
2017-06-19T12:34:19.193Z,0.00
2017-06-19T12:34:20.088Z,0.00
2017-06-19T12:34:20.906Z,0.00
2017-06-19T12:34:21.818Z,0.00
2017-06-19T12:34:22.659Z,1157.95
2017-06-19T12:34:23.586Z,1157.95
2017-06-19T12:34:24.449Z,1157.95
2017-06-19T12:34:25.293Z,925.46
2017-06-19T12:34:26.221Z,1157.95
2017-06-19T12:34:27.091Z,0.00
2017-06-19T12:34:27.945Z,0.00
2017-06-19T12:34:28.808Z,925.46
2017-06-19T12:34:29.684Z,1157.95
2017-06-19T12:34:30.536Z,925.46
2017-06-19T12:34:31.387Z,0.00
2017-06-19T12:34:33.323Z,0.00
2017-06-19T12:34:34.220Z,0.00
2017-06-19T12:34:35.108Z,0.00
2017-06-19T12:34:35.960Z,0.00
2017-06-19T12:34:36.846Z,0.00
2017-06-19T12:34:38.063Z,0.00
2017-06-19T12:34:38.913Z,0.00
2017-06-19T12:34:39.799Z,0.00
2017-06-19T12:34:40.703Z,0.00
2017-06-19T12:34:41.743Z,0.00
2017-06-19T12:34:42.583Z,0.00
2017-06-19T12:34:43.431Z,0.00
2017-06-19T12:34:44.307Z,0.02
2017-06-19T12:34:45.192Z,0.00
2017-06-19T12:34:46.034Z,0.00
2017-06-19T12:34:46.924Z,0.00
2017-06-19T12:34:47.862Z,0.00
2017-06-19T12:34:48.753Z,0.00
2017-06-19T12:34:49.606Z,0.00
2017-06-19T12:34:50.494Z,0.00
2017-06-19T12:34:51.357Z,0.00
2017-06-19T12:34:52.243Z,0.00
2017-06-19T12:34:53.134Z,0.00
2017-06-19T12:34:54.283Z,0.00
2017-06-19T12:34:55.161Z,0.00
2017-06-19T12:34:56.033Z,0.00
2017-06-19T12:34:56.939Z,0.00
2017-06-19T12:34:57.798Z,0.00
2017-06-19T12:34:58.675Z,0.00
2017-06-19T12:35:04.576Z,0.00
2017-06-19T12:35:05.424Z,0.00
2017-06-19T12:35:06.290Z,0.00
2017-06-19T12:35:07.243Z,0.00
2017-06-19T12:35:08.147Z,0.00
2017-06-19T12:35:09.051Z,0.00
2017-06-19T12:35:09.948Z,0.00
2017-06-19T12:40:54.231Z,0.00
2017-06-19T12:40:55.167Z,0.00
2017-06-19T12:40:56.051Z,0.00
2017-06-19T12:40:56.904Z,0.00
2017-06-19T12:40:57.975Z,0.00
2017-06-19T12:40:59.288Z,0.00
2017-06-19T12:41:00.609Z,0.00
2017-06-19T12:41:01.537Z,0.00
2017-06-19T12:41:02.449Z,0.00
2017-06-19T12:41:03.369Z,0.00
2017-06-19T12:41:04.298Z,0.00
2017-06-19T12:41:05.213Z,0.00
2017-06-19T12:41:06.261Z,0.00
2017-06-19T12:41:07.359Z,0.00
2017-06-19T12:42:55.787Z,0.00
2017-06-19T12:42:56.838Z,0.00
2017-06-19T12:42:57.778Z,0.00
2017-06-19T12:42:58.790Z,0.00
2017-06-19T12:42:59.715Z,0.00
2017-06-19T12:43:00.863Z,0.00
2017-06-19T12:43:01.996Z,0.00
2017-06-19T12:43:02.899Z,0.00
2017-06-19T12:43:03.789Z,0.00
2017-06-19T12:43:04.735Z,0.00
2017-06-19T12:43:05.647Z,0.00
2017-06-19T12:43:06.561Z,0.00
2017-06-19T12:43:07.479Z,0.00
2017-06-19T12:43:08.401Z,0.00
2017-06-19T12:43:09.373Z,0.00
2017-06-19T12:43:10.759Z,0.00
2017-06-19T12:43:11.705Z,0.00
2017-06-19T12:43:12.588Z,0.00
2017-06-19T12:43:13.511Z,0.00
2017-06-19T12:43:14.508Z,0.00
2017-06-19T12:43:15.445Z,0.00
2017-06-19T12:43:16.354Z,0.00
2017-06-19T12:43:17.298Z,0.00
2017-06-19T12:43:19.340Z,0.00
2017-06-19T12:43:20.259Z,0.00
2017-06-19T12:43:21.182Z,0.00
2017-06-19T12:43:23.195Z,0.00
2017-06-19T12:43:24.090Z,0.00
2017-06-19T12:43:25.078Z,0.00
2017-06-19T12:43:25.945Z,0.00
2017-06-19T12:43:26.842Z,0.00
2017-06-19T12:43:27.821Z,0.00
2017-06-19T12:43:29.819Z,0.00
2017-06-19T12:43:30.787Z,0.00
2017-06-19T12:43:31.724Z,0.00
2017-06-19T12:43:32.631Z,0.00
2017-06-19T12:43:33.589Z,0.00
2017-06-19T12:43:34.533Z,0.00
2017-06-19T12:43:35.390Z,0.00
2017-06-19T12:43:36.296Z,0.00
2017-06-19T12:43:37.807Z,0.00
2017-06-19T12:43:38.711Z,0.00
2017-06-19T12:43:39.613Z,0.00
2017-06-19T12:43:40.502Z,0.00
2017-06-19T12:43:41.440Z,0.00
2017-06-19T12:43:42.358Z,0.00
2017-06-19T12:43:43.212Z,0.00
2017-06-19T12:43:44.087Z,0.00
2017-06-19T12:43:45.029Z,0.00
2017-06-19T12:43:45.925Z,0.00
2017-06-19T12:43:46.821Z,0.00
2017-06-19T12:43:47.692Z,0.00
2017-06-19T12:43:48.581Z,0.00
2017-06-19T12:43:49.503Z,0.00
2017-06-19T12:43:50.407Z,0.00
2017-06-19T12:43:51.306Z,0.00
2017-06-19T12:43:52.255Z,0.00
2017-06-19T12:43:53.153Z,0.00
2017-06-19T12:43:54.075Z,0.00
2017-06-19T12:43:55.005Z,0.00
2017-06-19T12:43:55.885Z,0.00
2017-06-19T12:43:56.783Z,0.00
2017-06-19T12:43:57.644Z,0.00
2017-06-19T12:43:58.564Z,0.00
2017-06-19T12:43:59.448Z,0.00
2017-06-19T12:44:00.396Z,0.00
2017-06-19T12:44:01.279Z,0.00
2017-06-19T12:44:02.228Z,0.00
2017-06-19T12:44:03.184Z,0.00
2017-06-19T12:44:04.047Z,0.00
2017-06-19T12:44:04.987Z,0.00
2017-06-19T12:44:05.932Z,0.00
2017-06-19T12:44:06.831Z,0.00
2017-06-19T12:44:07.700Z,0.00
2017-06-19T12:44:08.575Z,0.00
2017-06-19T12:44:09.473Z,0.00
2017-06-19T12:44:10.354Z,0.00
2017-06-19T12:44:16.230Z,0.00
2017-06-19T12:44:17.072Z,0.00
2017-06-19T12:44:17.950Z,0.00
2017-06-19T12:44:18.915Z,0.00
2017-06-19T12:44:19.798Z,0.00
2017-06-19T12:44:20.655Z,0.00
2017-06-19T12:44:21.604Z,0.00
2017-06-19T12:44:22.483Z,0.00
2017-06-19T12:44:23.378Z,0.00
2017-06-19T12:44:24.289Z,0.00
2017-06-19T12:44:25.244Z,0.00
2017-06-19T12:44:26.104Z,0.00
2017-06-19T12:44:26.954Z,0.00
2017-06-19T12:44:27.887Z,0.00
2017-06-19T12:44:28.951Z,0.00
2017-06-19T12:44:29.809Z,0.00
2017-06-19T12:44:30.698Z,0.00
2017-06-19T12:44:31.560Z,0.00
2017-06-19T12:44:32.476Z,0.00
2017-06-19T12:44:33.353Z,0.00
2017-06-19T12:44:34.248Z,0.00
2017-06-19T12:44:35.220Z,0.00
2017-06-19T12:44:36.120Z,0.00
2017-06-19T12:44:37.012Z,0.00
2017-06-19T12:44:38.282Z,0.00
2017-06-19T12:44:39.159Z,0.00
2017-06-19T12:44:40.054Z,0.00
2017-06-19T12:44:40.952Z,0.00
2017-06-19T12:44:41.825Z,0.00
2017-06-19T12:44:42.773Z,0.00
2017-06-19T12:44:43.702Z,0.00
2017-06-19T12:44:44.553Z,0.00
2017-06-19T12:44:45.446Z,0.00
2017-06-19T12:44:46.367Z,0.00
2017-06-19T13:17:35.564Z,0.00
2017-06-19T13:17:36.451Z,0.00
2017-06-19T13:17:37.443Z,0.00
2017-06-19T13:17:38.528Z,0.00
2017-06-19T13:17:39.488Z,0.00
2017-06-19T13:17:40.401Z,0.00
2017-06-19T13:17:41.395Z,0.00
2017-06-19T13:17:42.288Z,0.00
2017-06-19T13:17:43.176Z,0.00
2017-06-19T13:17:44.111Z,0.00
2017-06-19T13:17:45.041Z,0.00
2017-06-19T13:17:45.924Z,0.00
2017-06-19T13:17:46.837Z,0.00
2017-06-19T13:17:47.782Z,0.00
2017-06-19T13:17:48.703Z,0.01
2017-06-19T13:17:49.627Z,0.00
2017-06-19T13:17:50.520Z,0.00
2017-06-19T13:17:51.407Z,0.00
2017-06-19T13:17:52.399Z,0.00
2017-06-19T13:17:53.279Z,0.00
2017-06-19T13:17:54.424Z,0.00
2017-06-19T13:17:55.363Z,0.00
2017-06-19T13:17:56.273Z,0.00
2017-06-19T13:17:57.176Z,0.00
2017-06-19T13:17:58.065Z,0.00
2017-06-19T13:17:58.954Z,0.00
2017-06-19T13:17:59.874Z,0.00
2017-06-19T13:18:00.799Z,0.00
2017-06-19T13:18:01.797Z,0.00
2017-06-19T13:18:02.671Z,0.00
2017-06-19T13:18:03.555Z,0.00
2017-06-19T13:18:04.743Z,0.00
2017-06-19T13:18:05.668Z,0.00
2017-06-19T13:18:06.591Z,0.00
2017-06-19T13:18:07.534Z,0.00
2017-06-19T13:18:08.416Z,0.00
2017-06-19T13:18:09.347Z,0.00
2017-06-19T13:18:10.358Z,0.00
2017-06-19T13:18:11.252Z,0.00
2017-06-19T13:18:12.156Z,0.00
2017-06-19T13:18:13.036Z,0.00
2017-06-19T13:18:13.929Z,0.00
2017-06-19T13:18:14.842Z,0.00
2017-06-19T13:18:15.737Z,0.00
2017-06-19T13:18:16.737Z,0.00
2017-06-19T13:18:17.591Z,0.00
2017-06-19T13:18:18.469Z,0.00
2017-06-19T13:18:19.328Z,0.00
2017-06-19T13:18:20.240Z,0.00
2017-06-19T13:18:21.127Z,0.00
2017-06-19T13:18:22.066Z,0.00
2017-06-19T13:18:23.006Z,0.00
2017-06-19T13:18:23.905Z,0.00
2017-06-19T13:18:24.810Z,0.00
2017-06-19T13:18:26.780Z,0.00
2017-06-19T13:18:27.716Z,0.00
2017-06-19T13:18:28.680Z,0.00
2017-06-19T13:18:29.865Z,0.00
2017-06-19T13:18:30.752Z,0.00
2017-06-19T13:18:31.669Z,0.00
2017-06-19T13:18:32.571Z,0.00
2017-06-19T13:18:33.499Z,0.00
2017-06-19T13:18:34.413Z,0.00
2017-06-19T13:18:35.329Z,0.00
2017-06-19T13:18:36.235Z,0.00
2017-06-19T13:18:37.183Z,0.00
2017-06-19T13:18:38.631Z,0.00
2017-06-19T13:18:39.670Z,0.00
2017-06-19T13:18:40.932Z,0.00
2017-06-19T13:18:41.816Z,0.00
2017-06-19T13:18:42.739Z,0.00
2017-06-19T13:18:43.595Z,0.00
2017-06-19T13:18:44.475Z,0.00
2017-06-19T13:18:45.371Z,0.00
2017-06-19T13:18:46.246Z,0.00
2017-06-19T13:18:47.137Z,0.00
2017-06-19T13:18:48.032Z,0.00
2017-06-19T13:18:48.913Z,0.00
2017-06-19T13:18:49.819Z,0.00
2017-06-19T13:18:51.128Z,0.00
2017-06-19T13:18:52.231Z,0.00
2017-06-19T13:18:53.896Z,0.00
2017-06-19T13:18:54.773Z,0.00
2017-06-19T13:18:55.706Z,0.00
2017-06-19T13:20:57.059Z,0.00
2017-06-19T13:20:57.957Z,0.00
2017-06-19T13:20:58.904Z,0.00
2017-06-19T13:20:59.835Z,0.00
2017-06-19T13:21:00.733Z,0.00
2017-06-19T13:21:01.636Z,0.00
2017-06-19T13:21:02.583Z,0.00
2017-06-19T13:21:03.608Z,0.00
2017-06-19T13:21:04.522Z,0.00
2017-06-19T13:21:05.422Z,0.00
2017-06-19T13:21:06.442Z,0.00
2017-06-19T13:21:07.338Z,0.00
2017-06-19T13:21:08.191Z,0.00
2017-06-19T13:21:09.082Z,0.00
2017-06-19T13:21:09.940Z,0.00
2017-06-19T13:21:10.885Z,0.00
2017-06-19T13:21:11.829Z,0.00
2017-06-19T13:21:12.758Z,0.00
2017-06-19T13:21:13.651Z,0.00
2017-06-19T13:21:14.513Z,0.00
2017-06-19T13:21:15.411Z,0.00
2017-06-19T13:21:16.623Z,0.00
2017-06-19T13:21:17.552Z,0.00
2017-06-19T13:21:18.461Z,0.00
2017-06-19T13:24:51.996Z,0.00
2017-06-19T13:24:52.924Z,0.00
2017-06-19T13:24:53.921Z,0.00
2017-06-19T13:24:54.860Z,0.00
2017-06-19T13:24:55.802Z,0.00
2017-06-19T13:25:01.764Z,0.00
2017-06-19T13:25:02.681Z,0.00
2017-06-19T13:28:37.133Z,0.00
2017-06-19T13:28:38.385Z,0.00
2017-06-19T13:28:40.368Z,0.00
2017-06-19T13:33:24.194Z,0.00
2017-06-19T13:33:25.184Z,0.00
2017-06-19T13:33:26.119Z,0.00
2017-06-19T13:33:27.152Z,0.00
2017-06-19T13:33:28.059Z,0.00
2017-06-19T13:33:28.971Z,0.00
2017-06-19T13:33:29.897Z,0.00
2017-06-19T13:33:30.789Z,0.00
2017-06-19T13:33:31.726Z,0.00
2017-06-19T13:33:32.732Z,0.00
2017-06-19T13:33:33.633Z,0.00
2017-06-19T13:33:34.861Z,0.00
2017-06-19T13:33:35.787Z,0.00
2017-06-19T13:33:36.689Z,0.00
2017-06-19T13:33:37.602Z,0.00
2017-06-19T13:33:38.508Z,0.00
2017-06-19T13:33:39.480Z,0.00
2017-06-19T13:33:40.394Z,0.00
2017-06-19T13:33:41.454Z,0.00
2017-06-19T13:33:42.314Z,0.00
2017-06-19T13:33:43.465Z,0.00
2017-06-19T13:33:44.448Z,0.00
2017-06-19T13:33:45.355Z,0.00
2017-06-19T13:33:46.371Z,0.00
2017-06-19T13:33:47.243Z,0.00
2017-06-19T13:33:48.117Z,0.00
2017-06-19T13:33:49.053Z,0.00
2017-06-19T13:33:49.954Z,0.00
2017-06-19T13:33:50.926Z,0.00
2017-06-19T13:33:51.885Z,0.00
2017-06-19T13:33:53.072Z,0.00
2017-06-19T13:33:53.974Z,0.00
2017-06-19T13:33:54.951Z,0.00
2017-06-19T13:33:55.837Z,0.00
2017-06-19T13:33:56.801Z,0.00
2017-06-19T13:33:57.702Z,0.00
2017-06-19T13:33:58.637Z,0.00
2017-06-19T13:33:59.569Z,0.00
2017-06-19T13:34:00.503Z,0.00
2017-06-19T13:34:01.403Z,0.00
2017-06-19T13:34:02.382Z,0.00
2017-06-19T13:34:03.264Z,0.00
2017-06-19T13:34:04.195Z,0.00
2017-06-19T13:34:05.099Z,0.00
2017-06-19T13:34:06.177Z,0.00
2017-06-19T13:34:07.104Z,0.00
2017-06-19T13:34:07.982Z,0.00
2017-06-19T13:34:08.848Z,0.00
2017-06-19T13:34:09.841Z,0.00
2017-06-19T13:34:10.765Z,0.00
2017-06-19T13:34:11.964Z,0.00
2017-06-19T13:34:13.125Z,0.00
2017-06-19T13:34:14.001Z,0.00
2017-06-19T13:34:14.942Z,0.00
2017-06-19T13:34:15.941Z,0.00
2017-06-19T13:34:16.902Z,0.00
2017-06-19T13:34:17.936Z,0.00
2017-06-19T13:34:18.831Z,0.00
2017-06-19T13:34:19.722Z,0.00
2017-06-19T13:34:20.799Z,0.00
2017-06-19T13:34:21.703Z,0.00
2017-06-19T13:34:22.665Z,0.00
2017-06-19T13:34:23.554Z,0.00
2017-06-19T13:34:24.473Z,0.00
2017-06-19T13:34:25.369Z,0.00
2017-06-19T13:34:26.329Z,0.00
2017-06-19T13:34:27.230Z,0.00
2017-06-19T13:34:28.136Z,0.00
2017-06-19T13:34:29.058Z,0.00
2017-06-19T13:34:30.036Z,0.00
2017-06-19T13:34:30.943Z,0.00
2017-06-19T13:34:31.820Z,0.00
2017-06-19T13:34:32.700Z,0.00
2017-06-19T13:34:33.638Z,0.00
2017-06-19T13:34:34.547Z,0.00
2017-06-19T13:34:35.449Z,0.00
2017-06-19T13:34:36.358Z,0.00
2017-06-19T13:34:37.275Z,0.00
2017-06-19T13:34:38.150Z,0.00
2017-06-19T13:34:39.212Z,0.00
2017-06-19T13:34:40.118Z,0.00
2017-06-19T13:34:40.999Z,0.00
2017-06-19T13:34:41.908Z,0.00
2017-06-19T13:34:42.797Z,0.00
2017-06-19T13:34:43.696Z,0.00
2017-06-19T13:34:44.610Z,0.00
2017-06-19T13:34:45.650Z,0.00
2017-06-19T13:34:46.559Z,0.00
2017-06-19T13:34:47.443Z,0.00
2017-06-19T13:34:48.935Z,0.00
2017-06-19T13:34:49.852Z,0.00
2017-06-19T13:34:50.860Z,0.00
2017-06-19T13:34:51.786Z,0.00
2017-06-19T13:34:52.692Z,0.00
2017-06-19T13:34:53.594Z,0.00
2017-06-19T13:34:54.547Z,0.00
2017-06-19T13:34:55.473Z,0.00
2017-06-19T13:34:56.796Z,0.00
2017-06-19T13:34:57.731Z,0.00
2017-06-19T13:34:58.680Z,0.00
2017-06-19T13:34:59.634Z,0.00
2017-06-19T13:35:00.541Z,0.00
2017-06-19T13:35:01.430Z,0.00
2017-06-19T13:35:02.377Z,0.00
2017-06-19T13:35:03.300Z,0.00
2017-06-19T13:35:04.183Z,0.00
2017-06-19T13:35:05.132Z,0.00
2017-06-19T13:35:06.043Z,0.00
2017-06-19T13:35:06.946Z,0.00
2017-06-19T13:35:07.866Z,0.00
2017-06-19T13:35:08.795Z,0.00
2017-06-19T13:35:09.917Z,0.00
2017-06-19T13:35:11.554Z,0.00
2017-06-19T13:35:12.826Z,0.00
2017-06-19T13:35:13.701Z,0.00
2017-06-19T13:35:14.602Z,0.00
2017-06-19T13:35:15.515Z,0.00
2017-06-19T13:35:16.411Z,0.00
2017-06-19T13:35:17.328Z,0.00
2017-06-19T13:35:18.259Z,0.00
2017-06-19T13:35:19.151Z,0.00
2017-06-19T13:42:13.726Z,0.00
2017-06-19T13:43:17.304Z,0.00
2017-06-19T13:43:20.009Z,0.00
2017-06-19T13:43:22.195Z,0.00
2017-06-19T13:43:24.356Z,0.00
2017-06-19T13:43:26.394Z,0.00
2017-06-19T13:48:16.718Z,0.00
2017-06-19T13:48:17.641Z,0.00
2017-06-19T13:48:18.574Z,0.00
2017-06-19T13:48:19.482Z,0.00
2017-06-19T13:48:20.409Z,0.00
2017-06-19T13:48:21.316Z,0.00
2017-06-19T13:48:22.222Z,0.00
2017-06-19T13:48:23.140Z,0.00
2017-06-19T13:48:24.073Z,0.00
2017-06-19T13:48:25.157Z,0.00
2017-06-19T13:48:26.125Z,0.00
2017-06-19T13:48:32.035Z,0.00
2017-06-19T13:48:32.935Z,0.00
2017-06-19T13:48:33.859Z,0.00
2017-06-19T13:48:35.905Z,0.00
2017-06-19T13:48:36.793Z,0.00
2017-06-19T13:48:37.664Z,0.00
2017-06-19T13:48:38.545Z,0.00
2017-06-19T13:48:39.401Z,0.00
2017-06-19T13:48:40.373Z,0.00
2017-06-19T13:48:41.297Z,0.00
2017-06-19T13:48:42.256Z,0.00
2017-06-19T13:48:43.463Z,0.00
2017-06-19T13:48:44.354Z,0.00
2017-06-19T13:48:45.266Z,0.00
2017-06-19T13:48:46.165Z,0.00
2017-06-19T13:48:47.087Z,0.00
2017-06-19T13:48:48.519Z,0.00
2017-06-19T13:48:49.467Z,0.00
2017-06-19T13:48:50.368Z,0.00
2017-06-19T13:48:51.256Z,0.00
2017-06-19T13:48:52.236Z,0.00
2017-06-19T13:48:53.128Z,0.00
2017-06-19T13:48:54.097Z,0.00
2017-06-19T13:48:54.964Z,0.00
2017-06-19T13:48:55.891Z,0.00
2017-06-19T13:48:56.857Z,0.00
2017-06-19T13:48:57.712Z,0.00
2017-06-19T13:48:58.632Z,0.00
2017-06-19T13:48:59.543Z,0.00
2017-06-19T13:49:00.467Z,0.00
2017-06-19T13:49:01.372Z,0.00
2017-06-19T13:49:02.293Z,0.00
2017-06-19T13:49:03.200Z,0.00
2017-06-19T13:49:04.207Z,0.00
2017-06-19T13:49:05.377Z,0.00
2017-06-19T13:49:06.585Z,0.00
2017-06-19T13:49:07.818Z,0.00
2017-06-19T13:49:09.035Z,0.00
2017-06-19T13:49:10.229Z,0.00
2017-06-19T13:49:11.868Z,0.00
2017-06-19T13:49:12.772Z,0.00
2017-06-19T13:49:13.643Z,0.00
2017-06-19T13:49:14.835Z,0.00
2017-06-19T13:49:15.887Z,0.00
2017-06-19T13:49:16.949Z,0.00
2017-06-19T13:49:17.967Z,0.00
2017-06-19T13:49:18.903Z,0.00
2017-06-19T13:49:19.855Z,0.00
2017-06-19T13:49:20.743Z,0.00
2017-06-19T13:49:21.652Z,0.00
2017-06-19T13:49:22.602Z,0.00
2017-06-19T13:49:23.633Z,0.00
2017-06-19T13:49:24.525Z,0.00
2017-06-19T13:49:25.443Z,0.00
2017-06-19T13:49:26.369Z,0.00
2017-06-19T13:49:27.280Z,0.00
2017-06-19T13:49:28.224Z,0.00
2017-06-19T13:49:29.166Z,0.00
2017-06-19T13:49:30.090Z,0.00
2017-06-19T13:49:30.982Z,0.00
2017-06-19T13:49:31.873Z,0.00
2017-06-19T13:49:32.805Z,0.00
2017-06-19T13:49:33.725Z,0.00
2017-06-19T13:49:34.674Z,0.00
2017-06-19T13:49:35.561Z,0.00
2017-06-19T13:49:36.487Z,0.00
2017-06-19T13:49:37.374Z,0.00
2017-06-19T13:49:38.285Z,0.00
2017-06-19T13:49:39.223Z,0.00
2017-06-19T13:49:40.133Z,0.00
2017-06-19T13:49:41.029Z,0.00
2017-06-19T13:49:41.948Z,0.00
2017-06-19T13:49:42.846Z,0.00
2017-06-19T13:49:43.781Z,0.00
2017-06-19T13:49:44.771Z,0.00
2017-06-19T13:49:45.980Z,0.00
2017-06-19T13:49:47.126Z,0.00
2017-06-19T13:49:48.279Z,0.00
2017-06-19T13:49:49.420Z,0.00
2017-06-19T13:49:50.548Z,0.00
2017-06-19T13:49:51.579Z,0.00
2017-06-19T13:49:52.467Z,0.00
2017-06-19T13:49:53.442Z,0.00
2017-06-19T13:49:54.336Z,0.00
2017-06-19T13:49:55.252Z,0.00
2017-06-19T13:49:56.147Z,0.00
2017-06-19T13:49:57.353Z,0.00
2017-06-19T13:49:58.258Z,0.00
2017-06-19T13:49:59.119Z,0.00
2017-06-19T13:49:59.999Z,0.00
2017-06-19T13:50:00.914Z,0.00
2017-06-19T13:50:01.864Z,0.00
2017-06-19T13:50:02.777Z,0.00
2017-06-19T13:50:03.675Z,0.00
2017-06-19T13:50:04.528Z,0.00
2017-06-19T13:50:05.474Z,0.00
2017-06-19T13:50:06.402Z,0.00
2017-06-19T13:50:07.320Z,0.00
2017-06-19T13:50:08.209Z,0.00
2017-06-19T13:50:10.205Z,0.00
2017-06-19T13:50:11.097Z,0.00
2017-06-19T13:50:12.400Z,0.00
2017-06-19T13:50:13.294Z,0.00
2017-06-19T13:50:14.203Z,0.00
2017-06-19T13:50:15.133Z,0.00
2017-06-19T13:50:16.068Z,0.00
2017-06-19T13:50:16.971Z,0.00
2017-06-19T13:50:17.889Z,0.00
2017-06-19T13:50:18.790Z,0.00
2017-06-19T13:50:19.736Z,0.00
2017-06-19T13:50:20.658Z,0.00
2017-06-19T13:50:21.589Z,0.00
2017-06-19T13:50:22.509Z,0.00
2017-06-19T13:50:23.534Z,0.00
2017-06-19T13:50:24.524Z,0.00
2017-06-19T13:50:25.437Z,0.00
2017-06-19T13:50:26.855Z,0.00
2017-06-19T13:50:27.768Z,0.00
2017-06-19T13:50:28.688Z,0.00
2017-06-19T13:50:29.767Z,0.00
2017-06-19T13:50:30.899Z,0.00
2017-06-19T13:50:31.994Z,0.00
2017-06-19T13:50:33.121Z,0.00
2017-06-19T13:50:34.961Z,0.00
2017-06-19T13:50:35.979Z,0.00
2017-06-19T13:50:37.023Z,0.00
2017-06-19T13:50:38.006Z,0.00
2017-06-19T13:50:39.077Z,0.00
2017-06-19T13:50:40.072Z,0.00
2017-06-19T13:50:41.041Z,0.00
2017-06-19T13:50:42.156Z,0.00
2017-06-19T13:50:43.316Z,0.00
2017-06-19T13:50:44.576Z,0.00
2017-06-19T13:50:46.416Z,0.00
2017-06-19T13:50:47.351Z,0.00
2017-06-19T13:50:48.337Z,0.00
2017-06-19T13:50:49.196Z,0.00
2017-06-19T13:50:50.115Z,0.00
2017-06-19T13:50:51.071Z,0.00
2017-06-19T13:50:51.975Z,0.00
2017-06-19T13:50:52.900Z,0.00
2017-06-19T13:50:53.914Z,0.00
2017-06-19T13:50:54.824Z,0.00
2017-06-19T13:50:55.749Z,0.00
2017-06-19T13:50:56.697Z,0.00
2017-06-19T13:50:57.584Z,0.00
2017-06-19T13:50:58.484Z,0.00
2017-06-19T13:50:59.396Z,0.00
2017-06-19T13:51:00.382Z,0.00
2017-06-19T13:51:01.280Z,0.00
2017-06-19T13:51:02.187Z,0.00
2017-06-19T13:51:03.108Z,0.00
2017-06-19T13:51:03.965Z,0.00
2017-06-19T13:51:04.878Z,0.00
2017-06-19T13:51:06.112Z,0.00
2017-06-19T13:51:07.044Z,0.00
2017-06-19T13:51:07.936Z,0.00
2017-06-19T13:51:08.865Z,0.00
2017-06-19T13:51:09.799Z,0.00
2017-06-19T13:51:10.695Z,0.00
2017-06-19T13:51:11.947Z,0.00
2017-06-19T13:51:12.837Z,0.00
2017-06-19T13:51:13.810Z,0.00
2017-06-19T13:51:14.705Z,0.00
2017-06-19T13:51:15.587Z,0.00
2017-06-19T13:51:16.482Z,0.00
2017-06-19T13:51:17.400Z,0.00
2017-06-19T13:51:23.395Z,0.00
2017-06-19T13:51:24.271Z,0.00
2017-06-19T13:51:25.192Z,0.00
2017-06-19T13:51:26.127Z,0.00
2017-06-19T13:51:27.215Z,0.00
2017-06-19T13:51:28.123Z,0.00
2017-06-19T13:51:29.070Z,0.00
2017-06-19T13:51:30.124Z,0.00
2017-06-19T13:51:31.062Z,0.00
2017-06-19T13:51:31.973Z,0.00
2017-06-19T13:51:33.964Z,0.00
2017-06-19T13:51:34.878Z,0.00
2017-06-19T13:51:36.258Z,0.00
2017-06-19T13:51:37.172Z,0.00
2017-06-19T13:51:38.091Z,0.00
2017-06-19T13:51:38.982Z,0.00
2017-06-19T13:51:39.899Z,0.00
2017-06-19T13:51:40.867Z,0.00
2017-06-19T13:51:41.726Z,0.00
2017-06-19T13:51:42.603Z,0.00
2017-06-19T13:51:43.864Z,0.00
2017-06-19T13:51:44.760Z,0.00
2017-06-19T13:51:45.690Z,0.00
2017-06-19T13:51:46.596Z,0.00
2017-06-19T13:51:47.564Z,0.00
2017-06-19T13:51:48.521Z,0.00
2017-06-19T13:51:49.472Z,0.00
2017-06-19T13:51:50.392Z,0.00
2017-06-19T13:51:51.301Z,0.00
2017-06-19T13:51:52.182Z,0.00
2017-06-19T13:51:53.088Z,0.00
2017-06-19T13:51:54.010Z,0.00
2017-06-19T13:51:54.924Z,0.00
2017-06-19T13:51:55.816Z,0.00
2017-06-19T13:51:56.778Z,0.00
2017-06-19T13:51:57.779Z,0.00
2017-06-19T13:51:58.672Z,0.00
2017-06-19T13:51:59.517Z,0.00